sensor_id;sensor_type;location;lat;lon;timestamp;P1;durP1;ratioP1;P2;durP2;ratioP2
3811;SDS011;1921;49.368;11.068;2023-07-13T00:00:18;65.50;;;50.87;;
3811;SDS011;1921;49.368;11.068;2023-07-13T00:02:45;65.73;;;51.00;;
3811;SDS011;1921;49.368;11.068;2023-07-13T00:05:11;65.70;;;50.87;;
3811;SDS011;1921;49.368;11.068;2023-07-13T00:07:36;64.10;;;50.50;;
3811;SDS011;1921;49.368;11.068;2023-07-13T00:10:02;67.43;;;51.60;;
3811;SDS011;1921;49.368;11.068;2023-07-13T00:12:30;66.63;;;50.77;;
3811;SDS011;1921;49.368;11.068;2023-07-13T00:14:59;66.30;;;51.33;;
3811;SDS011;1921;49.368;11.068;2023-07-13T00:17:31;67.60;;;51.17;;
3811;SDS011;1921;49.368;11.068;2023-07-13T00:19:57;66.20;;;50.80;;
3811;SDS011;1921;49.368;11.068;2023-07-13T00:22:23;66.10;;;50.77;;
3811;SDS011;1921;49.368;11.068;2023-07-13T00:24:50;65.80;;;51.50;;
3811;SDS011;1921;49.368;11.068;2023-07-13T00:27:18;67.10;;;51.40;;
3811;SDS011;1921;49.368;11.068;2023-07-13T00:29:44;66.10;;;51.13;;
3811;SDS011;1921;49.368;11.068;2023-07-13T00:32:10;65.20;;;51.03;;
3811;SDS011;1921;49.368;11.068;2023-07-13T00:34:38;69.10;;;51.23;;
3811;SDS011;1921;49.368;11.068;2023-07-13T00:37:04;68.43;;;51.23;;
3811;SDS011;1921;49.368;11.068;2023-07-13T00:39:32;68.87;;;52.03;;
3811;SDS011;1921;49.368;11.068;2023-07-13T00:41:59;65.47;;;50.90;;
3811;SDS011;1921;49.368;11.068;2023-07-13T00:44:26;67.00;;;50.67;;
3811;SDS011;1921;49.368;11.068;2023-07-13T00:46:52;66.40;;;50.87;;
3811;SDS011;1921;49.368;11.068;2023-07-13T00:49:19;68.40;;;50.93;;
3811;SDS011;1921;49.368;11.068;2023-07-13T00:51:52;67.10;;;50.50;;
3811;SDS011;1921;49.368;11.068;2023-07-13T00:54:32;64.37;;;50.50;;
3811;SDS011;1921;49.368;11.068;2023-07-13T00:57:05;64.40;;;50.53;;
3811;SDS011;1921;49.368;11.068;2023-07-13T00:59:36;65.67;;;50.40;;
3811;SDS011;1921;49.368;11.068;2023-07-13T01:02:05;64.47;;;50.67;;
3811;SDS011;1921;49.368;11.068;2023-07-13T01:04:31;66.07;;;51.10;;
3811;SDS011;1921;49.368;11.068;2023-07-13T01:06:57;65.13;;;50.90;;
3811;SDS011;1921;49.368;11.068;2023-07-13T01:09:25;66.70;;;51.10;;
3811;SDS011;1921;49.368;11.068;2023-07-13T01:11:52;67.07;;;50.87;;
3811;SDS011;1921;49.368;11.068;2023-07-13T01:14:18;65.93;;;50.77;;
3811;SDS011;1921;49.368;11.068;2023-07-13T01:16:45;65.20;;;50.40;;
3811;SDS011;1921;49.368;11.068;2023-07-13T01:19:22;64.60;;;50.47;;
3811;SDS011;1921;49.368;11.068;2023-07-13T01:22:06;66.30;;;50.60;;
3811;SDS011;1921;49.368;11.068;2023-07-13T01:24:44;65.37;;;50.70;;
3811;SDS011;1921;49.368;11.068;2023-07-13T01:27:14;65.73;;;50.80;;
3811;SDS011;1921;49.368;11.068;2023-07-13T01:29:44;64.27;;;50.43;;
3811;SDS011;1921;49.368;11.068;2023-07-13T01:32:13;63.60;;;50.20;;
3811;SDS011;1921;49.368;11.068;2023-07-13T01:34:47;64.90;;;50.43;;
3811;SDS011;1921;49.368;11.068;2023-07-13T01:37:14;65.43;;;51.17;;
3811;SDS011;1921;49.368;11.068;2023-07-13T01:39:40;66.30;;;50.37;;
3811;SDS011;1921;49.368;11.068;2023-07-13T01:42:05;65.10;;;50.40;;
3811;SDS011;1921;49.368;11.068;2023-07-13T01:44:31;67.13;;;50.47;;
3811;SDS011;1921;49.368;11.068;2023-07-13T01:46:57;65.60;;;50.43;;
3811;SDS011;1921;49.368;11.068;2023-07-13T01:49:23;65.10;;;50.17;;
3811;SDS011;1921;49.368;11.068;2023-07-13T01:51:49;64.33;;;49.97;;
3811;SDS011;1921;49.368;11.068;2023-07-13T01:54:14;64.40;;;50.03;;
3811;SDS011;1921;49.368;11.068;2023-07-13T01:56:40;63.57;;;49.83;;
3811;SDS011;1921;49.368;11.068;2023-07-13T01:59:09;67.80;;;49.80;;
3811;SDS011;1921;49.368;11.068;2023-07-13T02:01:34;63.43;;;49.70;;
3811;SDS011;1921;49.368;11.068;2023-07-13T02:04:00;65.50;;;49.87;;
3811;SDS011;1921;49.368;11.068;2023-07-13T02:06:27;65.50;;;50.43;;
3811;SDS011;1921;49.368;11.068;2023-07-13T02:08:52;64.33;;;50.00;;
3811;SDS011;1921;49.368;11.068;2023-07-13T02:11:19;65.00;;;49.83;;
3811;SDS011;1921;49.368;11.068;2023-07-13T02:13:45;63.23;;;50.10;;
3811;SDS011;1921;49.368;11.068;2023-07-13T02:16:11;64.63;;;49.90;;
3811;SDS011;1921;49.368;11.068;2023-07-13T02:18:37;63.50;;;49.83;;
3811;SDS011;1921;49.368;11.068;2023-07-13T02:21:03;66.97;;;50.17;;
3811;SDS011;1921;49.368;11.068;2023-07-13T02:23:28;63.70;;;50.00;;
3811;SDS011;1921;49.368;11.068;2023-07-13T02:25:58;64.63;;;50.27;;
3811;SDS011;1921;49.368;11.068;2023-07-13T02:28:27;64.73;;;50.07;;
3811;SDS011;1921;49.368;11.068;2023-07-13T02:30:53;64.90;;;50.00;;
3811;SDS011;1921;49.368;11.068;2023-07-13T02:33:19;62.70;;;49.63;;
3811;SDS011;1921;49.368;11.068;2023-07-13T02:35:44;65.37;;;49.60;;
3811;SDS011;1921;49.368;11.068;2023-07-13T02:38:10;63.90;;;49.70;;
3811;SDS011;1921;49.368;11.068;2023-07-13T02:40:36;66.20;;;51.13;;
3811;SDS011;1921;49.368;11.068;2023-07-13T02:43:03;64.23;;;50.47;;
3811;SDS011;1921;49.368;11.068;2023-07-13T02:45:30;65.40;;;49.87;;
3811;SDS011;1921;49.368;11.068;2023-07-13T02:47:55;64.20;;;49.70;;
3811;SDS011;1921;49.368;11.068;2023-07-13T02:50:21;64.70;;;50.10;;
3811;SDS011;1921;49.368;11.068;2023-07-13T02:52:47;64.00;;;50.23;;
3811;SDS011;1921;49.368;11.068;2023-07-13T02:55:13;64.30;;;49.53;;
3811;SDS011;1921;49.368;11.068;2023-07-13T02:57:38;65.20;;;49.30;;
3811;SDS011;1921;49.368;11.068;2023-07-13T03:00:04;64.10;;;49.53;;
3811;SDS011;1921;49.368;11.068;2023-07-13T03:02:31;64.40;;;50.07;;
3811;SDS011;1921;49.368;11.068;2023-07-13T03:04:58;66.63;;;50.07;;
3811;SDS011;1921;49.368;11.068;2023-07-13T03:07:24;65.03;;;50.23;;
3811;SDS011;1921;49.368;11.068;2023-07-13T03:09:53;63.90;;;49.50;;
3811;SDS011;1921;49.368;11.068;2023-07-13T03:12:22;62.97;;;49.20;;
3811;SDS011;1921;49.368;11.068;2023-07-13T03:14:48;72.80;;;49.43;;
3811;SDS011;1921;49.368;11.068;2023-07-13T03:17:17;62.70;;;49.53;;
3811;SDS011;1921;49.368;11.068;2023-07-13T03:19:43;63.57;;;49.77;;
3811;SDS011;1921;49.368;11.068;2023-07-13T03:22:09;62.70;;;49.67;;
3811;SDS011;1921;49.368;11.068;2023-07-13T03:24:35;65.93;;;50.00;;
3811;SDS011;1921;49.368;11.068;2023-07-13T03:27:03;61.97;;;49.30;;
3811;SDS011;1921;49.368;11.068;2023-07-13T03:29:30;63.10;;;49.30;;
3811;SDS011;1921;49.368;11.068;2023-07-13T03:31:55;62.27;;;49.10;;
3811;SDS011;1921;49.368;11.068;2023-07-13T03:34:22;62.70;;;49.43;;
3811;SDS011;1921;49.368;11.068;2023-07-13T03:36:48;61.80;;;49.27;;
3811;SDS011;1921;49.368;11.068;2023-07-13T03:39:14;65.20;;;49.30;;
3811;SDS011;1921;49.368;11.068;2023-07-13T03:41:40;63.10;;;49.57;;
3811;SDS011;1921;49.368;11.068;2023-07-13T03:44:05;63.43;;;49.43;;
3811;SDS011;1921;49.368;11.068;2023-07-13T03:46:32;63.30;;;49.90;;
3811;SDS011;1921;49.368;11.068;2023-07-13T03:48:58;63.23;;;49.70;;
3811;SDS011;1921;49.368;11.068;2023-07-13T03:51:25;64.63;;;49.30;;
3811;SDS011;1921;49.368;11.068;2023-07-13T03:53:51;66.17;;;49.90;;
3811;SDS011;1921;49.368;11.068;2023-07-13T03:56:17;64.70;;;50.13;;
3811;SDS011;1921;49.368;11.068;2023-07-13T03:58:44;62.70;;;49.60;;
3811;SDS011;1921;49.368;11.068;2023-07-13T04:01:13;62.83;;;49.37;;
3811;SDS011;1921;49.368;11.068;2023-07-13T04:03:41;63.50;;;50.07;;
3811;SDS011;1921;49.368;11.068;2023-07-13T04:06:12;63.03;;;49.70;;
3811;SDS011;1921;49.368;11.068;2023-07-13T04:08:49;63.90;;;50.00;;
3811;SDS011;1921;49.368;11.068;2023-07-13T04:11:18;67.03;;;50.27;;
3811;SDS011;1921;49.368;11.068;2023-07-13T04:13:45;66.27;;;50.20;;
3811;SDS011;1921;49.368;11.068;2023-07-13T04:16:12;64.67;;;50.57;;
3811;SDS011;1921;49.368;11.068;2023-07-13T04:18:39;66.00;;;50.07;;
3811;SDS011;1921;49.368;11.068;2023-07-13T04:21:06;67.00;;;50.70;;
3811;SDS011;1921;49.368;11.068;2023-07-13T04:23:34;66.87;;;50.50;;
3811;SDS011;1921;49.368;11.068;2023-07-13T04:26:00;72.27;;;50.53;;
3811;SDS011;1921;49.368;11.068;2023-07-13T04:28:26;64.33;;;50.27;;
3811;SDS011;1921;49.368;11.068;2023-07-13T04:30:52;68.40;;;50.90;;
3811;SDS011;1921;49.368;11.068;2023-07-13T04:33:18;63.80;;;50.00;;
3811;SDS011;1921;49.368;11.068;2023-07-13T04:35:48;64.27;;;49.90;;
3811;SDS011;1921;49.368;11.068;2023-07-13T04:38:19;65.57;;;50.50;;
3811;SDS011;1921;49.368;11.068;2023-07-13T04:40:45;65.33;;;50.07;;
3811;SDS011;1921;49.368;11.068;2023-07-13T04:43:12;67.07;;;50.40;;
3811;SDS011;1921;49.368;11.068;2023-07-13T04:45:38;64.73;;;50.40;;
3811;SDS011;1921;49.368;11.068;2023-07-13T04:48:03;65.10;;;50.27;;
3811;SDS011;1921;49.368;11.068;2023-07-13T04:50:30;64.73;;;50.23;;
3811;SDS011;1921;49.368;11.068;2023-07-13T04:52:55;63.90;;;50.17;;
3811;SDS011;1921;49.368;11.068;2023-07-13T04:55:21;65.43;;;50.47;;
3811;SDS011;1921;49.368;11.068;2023-07-13T04:57:47;66.00;;;50.90;;
3811;SDS011;1921;49.368;11.068;2023-07-13T05:00:13;66.40;;;51.10;;
3811;SDS011;1921;49.368;11.068;2023-07-13T05:02:42;66.83;;;51.40;;
3811;SDS011;1921;49.368;11.068;2023-07-13T05:05:10;66.67;;;51.17;;
3811;SDS011;1921;49.368;11.068;2023-07-13T05:07:36;67.90;;;51.73;;
3811;SDS011;1921;49.368;11.068;2023-07-13T05:10:02;71.80;;;52.20;;
3811;SDS011;1921;49.368;11.068;2023-07-13T05:12:29;76.23;;;52.77;;
3811;SDS011;1921;49.368;11.068;2023-07-13T05:14:55;67.87;;;52.13;;
3811;SDS011;1921;49.368;11.068;2023-07-13T05:17:21;70.37;;;52.17;;
3811;SDS011;1921;49.368;11.068;2023-07-13T05:19:47;69.80;;;52.40;;
3811;SDS011;1921;49.368;11.068;2023-07-13T05:22:13;70.00;;;53.00;;
3811;SDS011;1921;49.368;11.068;2023-07-13T05:24:38;69.87;;;52.20;;
3811;SDS011;1921;49.368;11.068;2023-07-13T05:27:04;72.20;;;52.53;;
3811;SDS011;1921;49.368;11.068;2023-07-13T05:29:30;70.47;;;52.43;;
3811;SDS011;1921;49.368;11.068;2023-07-13T05:31:56;70.00;;;52.17;;
3811;SDS011;1921;49.368;11.068;2023-07-13T05:34:22;69.50;;;52.10;;
3811;SDS011;1921;49.368;11.068;2023-07-13T05:36:48;68.50;;;52.03;;
3811;SDS011;1921;49.368;11.068;2023-07-13T05:39:14;68.57;;;52.40;;
3811;SDS011;1921;49.368;11.068;2023-07-13T05:41:41;69.13;;;52.43;;
3811;SDS011;1921;49.368;11.068;2023-07-13T05:44:07;69.73;;;52.50;;
3811;SDS011;1921;49.368;11.068;2023-07-13T05:46:33;69.33;;;52.60;;
3811;SDS011;1921;49.368;11.068;2023-07-13T05:48:59;70.50;;;53.30;;
3811;SDS011;1921;49.368;11.068;2023-07-13T05:51:25;68.63;;;52.17;;
3811;SDS011;1921;49.368;11.068;2023-07-13T05:53:51;68.80;;;52.00;;
3811;SDS011;1921;49.368;11.068;2023-07-13T05:56:16;67.80;;;51.97;;
3811;SDS011;1921;49.368;11.068;2023-07-13T05:58:42;71.97;;;52.43;;
3811;SDS011;1921;49.368;11.068;2023-07-13T06:01:12;66.47;;;51.50;;
3811;SDS011;1921;49.368;11.068;2023-07-13T06:03:40;71.50;;;51.70;;
3811;SDS011;1921;49.368;11.068;2023-07-13T06:06:06;67.70;;;51.60;;
3811;SDS011;1921;49.368;11.068;2023-07-13T06:08:34;68.30;;;51.50;;
3811;SDS011;1921;49.368;11.068;2023-07-13T06:11:04;66.50;;;51.70;;
3811;SDS011;1921;49.368;11.068;2023-07-13T06:13:32;69.73;;;51.57;;
3811;SDS011;1921;49.368;11.068;2023-07-13T06:15:58;68.83;;;51.90;;
3811;SDS011;1921;49.368;11.068;2023-07-13T06:18:25;68.13;;;52.10;;
3811;SDS011;1921;49.368;11.068;2023-07-13T06:20:50;68.67;;;52.27;;
3811;SDS011;1921;49.368;11.068;2023-07-13T06:23:16;70.00;;;52.47;;
3811;SDS011;1921;49.368;11.068;2023-07-13T06:25:42;70.00;;;51.73;;
3811;SDS011;1921;49.368;11.068;2023-07-13T06:28:08;67.60;;;52.10;;
3811;SDS011;1921;49.368;11.068;2023-07-13T06:30:34;70.97;;;52.30;;
3811;SDS011;1921;49.368;11.068;2023-07-13T06:33:00;71.50;;;52.50;;
3811;SDS011;1921;49.368;11.068;2023-07-13T06:35:25;67.17;;;51.70;;
3811;SDS011;1921;49.368;11.068;2023-07-13T06:37:51;68.97;;;51.93;;
3811;SDS011;1921;49.368;11.068;2023-07-13T06:40:17;71.27;;;52.67;;
3811;SDS011;1921;49.368;11.068;2023-07-13T06:42:42;68.27;;;52.27;;
3811;SDS011;1921;49.368;11.068;2023-07-13T06:45:08;70.37;;;51.90;;
3811;SDS011;1921;49.368;11.068;2023-07-13T06:47:34;69.27;;;51.70;;
3811;SDS011;1921;49.368;11.068;2023-07-13T06:50:00;68.97;;;51.90;;
3811;SDS011;1921;49.368;11.068;2023-07-13T06:52:26;68.63;;;51.77;;
3811;SDS011;1921;49.368;11.068;2023-07-13T06:54:52;68.93;;;51.73;;
3811;SDS011;1921;49.368;11.068;2023-07-13T06:57:17;66.07;;;51.13;;
3811;SDS011;1921;49.368;11.068;2023-07-13T06:59:43;65.20;;;51.10;;
3811;SDS011;1921;49.368;11.068;2023-07-13T07:02:10;69.03;;;51.90;;
3811;SDS011;1921;49.368;11.068;2023-07-13T07:04:36;66.90;;;51.57;;
3811;SDS011;1921;49.368;11.068;2023-07-13T07:07:02;68.53;;;52.13;;
3811;SDS011;1921;49.368;11.068;2023-07-13T07:09:28;69.10;;;51.53;;
3811;SDS011;1921;49.368;11.068;2023-07-13T07:11:55;86.33;;;52.10;;
3811;SDS011;1921;49.368;11.068;2023-07-13T07:14:21;67.80;;;52.00;;
3811;SDS011;1921;49.368;11.068;2023-07-13T07:16:47;66.77;;;51.47;;
3811;SDS011;1921;49.368;11.068;2023-07-13T07:19:12;70.07;;;52.43;;
3811;SDS011;1921;49.368;11.068;2023-07-13T07:21:38;69.40;;;52.17;;
3811;SDS011;1921;49.368;11.068;2023-07-13T07:24:04;71.20;;;52.80;;
3811;SDS011;1921;49.368;11.068;2023-07-13T07:26:30;70.30;;;52.30;;
3811;SDS011;1921;49.368;11.068;2023-07-13T07:28:56;70.47;;;52.50;;
3811;SDS011;1921;49.368;11.068;2023-07-13T07:31:22;71.10;;;53.23;;
3811;SDS011;1921;49.368;11.068;2023-07-13T07:33:48;70.10;;;52.70;;
3811;SDS011;1921;49.368;11.068;2023-07-13T07:36:14;70.20;;;52.60;;
3811;SDS011;1921;49.368;11.068;2023-07-13T07:38:41;71.13;;;52.57;;
3811;SDS011;1921;49.368;11.068;2023-07-13T07:41:08;69.67;;;52.30;;
3811;SDS011;1921;49.368;11.068;2023-07-13T07:43:34;70.93;;;52.60;;
3811;SDS011;1921;49.368;11.068;2023-07-13T07:46:00;71.33;;;52.37;;
3811;SDS011;1921;49.368;11.068;2023-07-13T07:48:26;68.13;;;52.30;;
3811;SDS011;1921;49.368;11.068;2023-07-13T07:50:51;68.20;;;52.27;;
3811;SDS011;1921;49.368;11.068;2023-07-13T07:53:17;70.00;;;52.43;;
3811;SDS011;1921;49.368;11.068;2023-07-13T07:55:44;71.57;;;52.77;;
3811;SDS011;1921;49.368;11.068;2023-07-13T07:58:10;70.87;;;52.80;;
3811;SDS011;1921;49.368;11.068;2023-07-13T08:00:36;69.40;;;52.23;;
3811;SDS011;1921;49.368;11.068;2023-07-13T08:03:02;72.30;;;52.30;;
3811;SDS011;1921;49.368;11.068;2023-07-13T08:05:28;72.63;;;52.90;;
3811;SDS011;1921;49.368;11.068;2023-07-13T08:07:54;71.60;;;52.60;;
3811;SDS011;1921;49.368;11.068;2023-07-13T08:10:20;70.87;;;52.70;;
3811;SDS011;1921;49.368;11.068;2023-07-13T08:12:45;71.53;;;53.20;;
3811;SDS011;1921;49.368;11.068;2023-07-13T08:15:13;69.87;;;52.83;;
3811;SDS011;1921;49.368;11.068;2023-07-13T08:17:41;72.03;;;52.90;;
3811;SDS011;1921;49.368;11.068;2023-07-13T08:20:07;70.27;;;52.87;;
3811;SDS011;1921;49.368;11.068;2023-07-13T08:22:34;77.17;;;53.33;;
3811;SDS011;1921;49.368;11.068;2023-07-13T08:25:00;73.80;;;53.20;;
3811;SDS011;1921;49.368;11.068;2023-07-13T08:27:26;73.83;;;53.13;;
3811;SDS011;1921;49.368;11.068;2023-07-13T08:29:53;71.30;;;53.33;;
3811;SDS011;1921;49.368;11.068;2023-07-13T08:32:20;72.70;;;53.10;;
3811;SDS011;1921;49.368;11.068;2023-07-13T08:34:47;72.40;;;53.40;;
3811;SDS011;1921;49.368;11.068;2023-07-13T08:37:14;73.90;;;53.93;;
3811;SDS011;1921;49.368;11.068;2023-07-13T08:39:40;70.87;;;52.83;;
3811;SDS011;1921;49.368;11.068;2023-07-13T08:47:52;72.63;;;53.13;;
3811;SDS011;1921;49.368;11.068;2023-07-13T08:50:27;70.80;;;53.63;;
3811;SDS011;1921;49.368;11.068;2023-07-13T08:53:01;71.30;;;53.27;;
3811;SDS011;1921;49.368;11.068;2023-07-13T08:55:29;73.90;;;53.10;;
3811;SDS011;1921;49.368;11.068;2023-07-13T08:58:03;68.43;;;52.40;;
3811;SDS011;1921;49.368;11.068;2023-07-13T09:06:31;70.77;;;52.70;;
3811;SDS011;1921;49.368;11.068;2023-07-13T09:09:24;75.17;;;53.53;;
3811;SDS011;1921;49.368;11.068;2023-07-13T09:12:33;68.90;;;52.27;;
3811;SDS011;1921;49.368;11.068;2023-07-13T09:15:25;71.90;;;53.20;;
3811;SDS011;1921;49.368;11.068;2023-07-13T09:17:56;72.30;;;54.47;;
3811;SDS011;1921;49.368;11.068;2023-07-13T09:20:36;69.33;;;52.53;;
3811;SDS011;1921;49.368;11.068;2023-07-13T09:23:12;72.60;;;52.47;;
3811;SDS011;1921;49.368;11.068;2023-07-13T09:25:43;68.43;;;52.37;;
3811;SDS011;1921;49.368;11.068;2023-07-13T09:28:14;71.23;;;52.87;;
3811;SDS011;1921;49.368;11.068;2023-07-13T09:30:59;69.53;;;52.43;;
3811;SDS011;1921;49.368;11.068;2023-07-13T09:33:27;70.77;;;52.63;;
3811;SDS011;1921;49.368;11.068;2023-07-13T09:35:54;68.77;;;52.43;;
3811;SDS011;1921;49.368;11.068;2023-07-13T09:38:24;69.17;;;52.47;;
3811;SDS011;1921;49.368;11.068;2023-07-13T09:47:00;69.13;;;52.80;;
3811;SDS011;1921;49.368;11.068;2023-07-13T09:49:28;70.07;;;53.30;;
3811;SDS011;1921;49.368;11.068;2023-07-13T09:51:59;70.50;;;52.93;;
3811;SDS011;1921;49.368;11.068;2023-07-13T09:54:31;79.67;;;53.17;;
3811;SDS011;1921;49.368;11.068;2023-07-13T09:57:00;70.23;;;53.23;;
3811;SDS011;1921;49.368;11.068;2023-07-13T09:59:29;70.73;;;53.20;;
3811;SDS011;1921;49.368;11.068;2023-07-13T10:01:58;69.47;;;52.63;;
3811;SDS011;1921;49.368;11.068;2023-07-13T10:04:32;72.13;;;54.50;;
3811;SDS011;1921;49.368;11.068;2023-07-13T10:07:09;68.87;;;52.77;;
3811;SDS011;1921;49.368;11.068;2023-07-13T10:09:38;73.40;;;53.77;;
3811;SDS011;1921;49.368;11.068;2023-07-13T10:12:04;71.33;;;53.63;;
3811;SDS011;1921;49.368;11.068;2023-07-13T10:14:39;73.90;;;53.60;;
3811;SDS011;1921;49.368;11.068;2023-07-13T10:17:10;72.80;;;53.23;;
3811;SDS011;1921;49.368;11.068;2023-07-13T10:19:39;70.60;;;53.27;;
3811;SDS011;1921;49.368;11.068;2023-07-13T10:22:24;72.00;;;53.37;;
3811;SDS011;1921;49.368;11.068;2023-07-13T10:25:19;71.13;;;53.53;;
3811;SDS011;1921;49.368;11.068;2023-07-13T10:27:52;71.10;;;53.67;;
3811;SDS011;1921;49.368;11.068;2023-07-13T10:30:40;71.13;;;53.50;;
3811;SDS011;1921;49.368;11.068;2023-07-13T10:33:10;71.47;;;54.13;;
3811;SDS011;1921;49.368;11.068;2023-07-13T10:35:38;70.97;;;53.17;;
3811;SDS011;1921;49.368;11.068;2023-07-13T10:38:19;71.60;;;53.27;;
3811;SDS011;1921;49.368;11.068;2023-07-13T10:40:55;69.73;;;53.13;;
3811;SDS011;1921;49.368;11.068;2023-07-13T10:43:39;70.80;;;53.83;;
3811;SDS011;1921;49.368;11.068;2023-07-13T10:46:17;70.97;;;52.93;;
3811;SDS011;1921;49.368;11.068;2023-07-13T10:48:48;71.97;;;52.63;;
3811;SDS011;1921;49.368;11.068;2023-07-13T10:51:19;73.00;;;53.27;;
3811;SDS011;1921;49.368;11.068;2023-07-13T10:53:46;71.33;;;53.20;;
3811;SDS011;1921;49.368;11.068;2023-07-13T10:56:27;71.77;;;53.43;;
3811;SDS011;1921;49.368;11.068;2023-07-13T11:01:53;71.57;;;53.27;;
3811;SDS011;1921;49.368;11.068;2023-07-13T11:04:21;70.70;;;53.37;;
3811;SDS011;1921;49.368;11.068;2023-07-13T11:06:50;72.37;;;53.33;;
3811;SDS011;1921;49.368;11.068;2023-07-13T11:09:35;70.70;;;53.30;;
3811;SDS011;1921;49.368;11.068;2023-07-13T11:12:07;69.50;;;53.00;;
3811;SDS011;1921;49.368;11.068;2023-07-13T11:14:43;70.10;;;53.23;;
3811;SDS011;1921;49.368;11.068;2023-07-13T11:17:37;70.37;;;53.80;;
3811;SDS011;1921;49.368;11.068;2023-07-13T11:20:33;72.80;;;52.97;;
3811;SDS011;1921;49.368;11.068;2023-07-13T11:23:09;72.67;;;53.80;;
3811;SDS011;1921;49.368;11.068;2023-07-13T11:25:52;71.70;;;53.53;;
3811;SDS011;1921;49.368;11.068;2023-07-13T11:28:23;72.43;;;54.00;;
3811;SDS011;1921;49.368;11.068;2023-07-13T11:33:45;70.63;;;53.43;;
3811;SDS011;1921;49.368;11.068;2023-07-13T11:36:21;69.37;;;53.10;;
3811;SDS011;1921;49.368;11.068;2023-07-13T11:39:04;70.90;;;53.40;;
3811;SDS011;1921;49.368;11.068;2023-07-13T11:41:56;70.70;;;53.27;;
3811;SDS011;1921;49.368;11.068;2023-07-13T11:44:29;71.93;;;53.40;;
3811;SDS011;1921;49.368;11.068;2023-07-13T11:46:58;72.40;;;53.47;;
3811;SDS011;1921;49.368;11.068;2023-07-13T11:49:40;71.30;;;53.57;;
3811;SDS011;1921;49.368;11.068;2023-07-13T11:52:16;70.37;;;53.40;;
3811;SDS011;1921;49.368;11.068;2023-07-13T11:54:50;70.00;;;53.43;;
3811;SDS011;1921;49.368;11.068;2023-07-13T11:57:30;74.20;;;54.00;;
3811;SDS011;1921;49.368;11.068;2023-07-13T12:00:02;72.03;;;53.70;;
3811;SDS011;1921;49.368;11.068;2023-07-13T12:02:41;72.30;;;53.70;;
3811;SDS011;1921;49.368;11.068;2023-07-13T12:05:11;73.03;;;53.90;;
3811;SDS011;1921;49.368;11.068;2023-07-13T12:07:40;73.10;;;54.27;;
3811;SDS011;1921;49.368;11.068;2023-07-13T12:15:38;71.70;;;53.90;;
3811;SDS011;1921;49.368;11.068;2023-07-13T12:18:11;76.30;;;54.33;;
3811;SDS011;1921;49.368;11.068;2023-07-13T12:20:46;72.57;;;54.45;;
3811;SDS011;1921;49.368;11.068;2023-07-13T12:23:32;72.65;;;54.72;;
3811;SDS011;1921;49.368;11.068;2023-07-13T12:26:04;71.80;;;54.40;;
3811;SDS011;1921;49.368;11.068;2023-07-13T12:28:38;74.20;;;54.13;;
3811;SDS011;1921;49.368;11.068;2023-07-13T12:31:23;72.97;;;54.40;;
3811;SDS011;1921;49.368;11.068;2023-07-13T12:34:14;73.55;;;54.15;;
3811;SDS011;1921;49.368;11.068;2023-07-13T12:36:47;72.50;;;54.42;;
3811;SDS011;1921;49.368;11.068;2023-07-13T12:39:23;71.90;;;54.22;;
3811;SDS011;1921;49.368;11.068;2023-07-13T12:42:19;73.37;;;54.70;;
3811;SDS011;1921;49.368;11.068;2023-07-13T12:47:56;73.07;;;54.83;;
3811;SDS011;1921;49.368;11.068;2023-07-13T12:50:39;72.60;;;54.17;;
3811;SDS011;1921;49.368;11.068;2023-07-13T12:53:15;72.85;;;54.33;;
3811;SDS011;1921;49.368;11.068;2023-07-13T12:55:47;73.47;;;54.78;;
3811;SDS011;1921;49.368;11.068;2023-07-13T12:58:28;72.07;;;54.28;;
3811;SDS011;1921;49.368;11.068;2023-07-13T13:01:09;73.90;;;54.70;;
3811;SDS011;1921;49.368;11.068;2023-07-13T13:03:38;73.07;;;54.25;;
3811;SDS011;1921;49.368;11.068;2023-07-13T13:08:43;71.95;;;54.25;;
3811;SDS011;1921;49.368;11.068;2023-07-13T13:11:14;71.95;;;54.97;;
3811;SDS011;1921;49.368;11.068;2023-07-13T13:13:42;72.60;;;54.28;;
3811;SDS011;1921;49.368;11.068;2023-07-13T13:16:19;71.13;;;53.95;;
3811;SDS011;1921;49.368;11.068;2023-07-13T13:18:52;72.70;;;54.72;;
3811;SDS011;1921;49.368;11.068;2023-07-13T13:21:22;72.93;;;54.78;;
3811;SDS011;1921;49.368;11.068;2023-07-13T13:23:50;72.65;;;54.40;;
3811;SDS011;1921;49.368;11.068;2023-07-13T13:26:23;72.97;;;54.40;;
3811;SDS011;1921;49.368;11.068;2023-07-13T13:28:49;70.60;;;53.87;;
3811;SDS011;1921;49.368;11.068;2023-07-13T13:31:15;72.70;;;54.17;;
3811;SDS011;1921;49.368;11.068;2023-07-13T13:33:41;76.43;;;54.60;;
3811;SDS011;1921;49.368;11.068;2023-07-13T13:36:20;71.97;;;54.23;;
3811;SDS011;1921;49.368;11.068;2023-07-13T13:38:48;72.30;;;54.20;;
3811;SDS011;1921;49.368;11.068;2023-07-13T13:41:15;76.82;;;54.17;;
3811;SDS011;1921;49.368;11.068;2023-07-13T13:43:42;72.17;;;55.00;;
3811;SDS011;1921;49.368;11.068;2023-07-13T13:46:19;72.23;;;53.80;;
3811;SDS011;1921;49.368;11.068;2023-07-13T13:48:50;71.53;;;54.13;;
3811;SDS011;1921;49.368;11.068;2023-07-13T13:51:17;73.13;;;54.10;;
3811;SDS011;1921;49.368;11.068;2023-07-13T13:53:46;72.87;;;54.37;;
3811;SDS011;1921;49.368;11.068;2023-07-13T13:56:13;70.50;;;53.53;;
3811;SDS011;1921;49.368;11.068;2023-07-13T13:58:40;72.50;;;53.80;;
3811;SDS011;1921;49.368;11.068;2023-07-13T14:01:39;71.70;;;53.80;;
3811;SDS011;1921;49.368;11.068;2023-07-13T14:03:58;73.30;;;54.27;;
3811;SDS011;1921;49.368;11.068;2023-07-13T14:06:24;72.23;;;53.87;;
3811;SDS011;1921;49.368;11.068;2023-07-13T14:08:50;71.93;;;54.10;;
3811;SDS011;1921;49.368;11.068;2023-07-13T14:11:19;71.50;;;54.23;;
3811;SDS011;1921;49.368;11.068;2023-07-13T14:13:50;71.97;;;54.30;;
3811;SDS011;1921;49.368;11.068;2023-07-13T14:16:20;71.67;;;54.27;;
3811;SDS011;1921;49.368;11.068;2023-07-13T14:18:52;78.80;;;54.83;;
3811;SDS011;1921;49.368;11.068;2023-07-13T14:21:20;71.53;;;54.20;;
3811;SDS011;1921;49.368;11.068;2023-07-13T14:23:47;73.05;;;53.97;;
3811;SDS011;1921;49.368;11.068;2023-07-13T14:26:18;72.95;;;54.80;;
3811;SDS011;1921;49.368;11.068;2023-07-13T14:28:50;76.05;;;54.20;;
3811;SDS011;1921;49.368;11.068;2023-07-13T14:31:21;74.35;;;54.75;;
3811;SDS011;1921;49.368;11.068;2023-07-13T14:33:49;73.33;;;53.97;;
3811;SDS011;1921;49.368;11.068;2023-07-13T14:38:55;73.83;;;54.13;;
3811;SDS011;1921;49.368;11.068;2023-07-13T14:41:22;75.10;;;54.13;;
3811;SDS011;1921;49.368;11.068;2023-07-13T14:43:49;71.83;;;54.10;;
3811;SDS011;1921;49.368;11.068;2023-07-13T14:46:18;72.43;;;54.90;;
3811;SDS011;1921;49.368;11.068;2023-07-13T14:49:12;72.13;;;54.47;;
3811;SDS011;1921;49.368;11.068;2023-07-13T14:51:51;71.90;;;53.70;;
3811;SDS011;1921;49.368;11.068;2023-07-13T14:54:17;72.60;;;54.00;;
3811;SDS011;1921;49.368;11.068;2023-07-13T14:56:43;71.70;;;53.70;;
3811;SDS011;1921;49.368;11.068;2023-07-13T14:59:08;85.70;;;54.63;;
3811;SDS011;1921;49.368;11.068;2023-07-13T15:01:35;71.90;;;53.80;;
3811;SDS011;1921;49.368;11.068;2023-07-13T15:04:02;71.25;;;54.00;;
3811;SDS011;1921;49.368;11.068;2023-07-13T15:06:29;76.07;;;54.72;;
3811;SDS011;1921;49.368;11.068;2023-07-13T15:08:56;71.47;;;54.00;;
3811;SDS011;1921;49.368;11.068;2023-07-13T15:11:22;71.10;;;53.73;;
3811;SDS011;1921;49.368;11.068;2023-07-13T15:13:48;72.37;;;53.93;;
3811;SDS011;1921;49.368;11.068;2023-07-13T15:16:16;73.70;;;54.40;;
3811;SDS011;1921;49.368;11.068;2023-07-13T15:18:48;74.68;;;54.30;;
3811;SDS011;1921;49.368;11.068;2023-07-13T15:21:17;72.40;;;53.95;;
3811;SDS011;1921;49.368;11.068;2023-07-13T15:23:47;72.82;;;54.63;;